sensor_id;sensor_type;location;lat;lon;timestamp;P1;durP1;ratioP1;P2;durP2;ratioP2
53203;SDS011;39086;54.424;18.456;2022-08-19T00:01:00;5.43;;;4.00;;
53203;SDS011;39086;54.424;18.456;2022-08-19T00:02:04;6.40;;;4.27;;
53203;SDS011;39086;54.424;18.456;2022-08-19T00:03:12;2.97;;;2.77;;
53203;SDS011;39086;54.424;18.456;2022-08-19T00:04:17;2.67;;;2.47;;
53203;SDS011;39086;54.424;18.456;2022-08-19T00:05:20;3.03;;;2.67;;
53203;SDS011;39086;54.424;18.456;2022-08-19T00:06:24;4.27;;;3.40;;
53203;SDS011;39086;54.424;18.456;2022-08-19T00:07:27;5.43;;;4.70;;
53203;SDS011;39086;54.424;18.456;2022-08-19T00:08:37;3.90;;;3.57;;
53203;SDS011;39086;54.424;18.456;2022-08-19T00:09:43;6.00;;;4.43;;
53203;SDS011;39086;54.424;18.456;2022-08-19T00:10:46;3.93;;;3.63;;
53203;SDS011;39086;54.424;18.456;2022-08-19T00:11:49;5.33;;;3.63;;
53203;SDS011;39086;54.424;18.456;2022-08-19T00:12:53;3.73;;;3.53;;
53203;SDS011;39086;54.424;18.456;2022-08-19T00:14:01;3.63;;;3.33;;
53203;SDS011;39086;54.424;18.456;2022-08-19T00:15:13;4.10;;;3.87;;
53203;SDS011;39086;54.424;18.456;2022-08-19T00:16:17;4.47;;;4.07;;
53203;SDS011;39086;54.424;18.456;2022-08-19T00:17:26;6.37;;;4.20;;
53203;SDS011;39086;54.424;18.456;2022-08-19T00:18:30;4.27;;;3.87;;
53203;SDS011;39086;54.424;18.456;2022-08-19T00:19:33;3.47;;;3.27;;
53203;SDS011;39086;54.424;18.456;2022-08-19T00:20:58;4.20;;;3.07;;
53203;SDS011;39086;54.424;18.456;2022-08-19T00:22:17;3.33;;;3.03;;
53203;SDS011;39086;54.424;18.456;2022-08-19T00:23:21;3.27;;;3.07;;
53203;SDS011;39086;54.424;18.456;2022-08-19T00:24:23;6.53;;;4.00;;
53203;SDS011;39086;54.424;18.456;2022-08-19T00:25:36;3.47;;;3.23;;
53203;SDS011;39086;54.424;18.456;2022-08-19T00:26:40;3.87;;;3.60;;
53203;SDS011;39086;54.424;18.456;2022-08-19T00:27:43;4.90;;;4.20;;
53203;SDS011;39086;54.424;18.456;2022-08-19T00:28:46;3.70;;;3.50;;
53203;SDS011;39086;54.424;18.456;2022-08-19T00:29:49;7.37;;;4.27;;
53203;SDS011;39086;54.424;18.456;2022-08-19T00:30:58;3.63;;;3.33;;
53203;SDS011;39086;54.424;18.456;2022-08-19T00:32:05;3.60;;;3.33;;
53203;SDS011;39086;54.424;18.456;2022-08-19T00:33:11;3.83;;;3.30;;
53203;SDS011;39086;54.424;18.456;2022-08-19T00:34:15;3.13;;;2.87;;
53203;SDS011;39086;54.424;18.456;2022-08-19T00:35:17;3.83;;;2.67;;
53203;SDS011;39086;54.424;18.456;2022-08-19T00:36:27;8.03;;;3.50;;
53203;SDS011;39086;54.424;18.456;2022-08-19T00:37:30;4.17;;;3.17;;
53203;SDS011;39086;54.424;18.456;2022-08-19T00:38:34;3.60;;;3.40;;
53203;SDS011;39086;54.424;18.456;2022-08-19T00:39:38;3.70;;;2.97;;
53203;SDS011;39086;54.424;18.456;2022-08-19T00:40:49;3.10;;;2.80;;
53203;SDS011;39086;54.424;18.456;2022-08-19T00:41:52;4.40;;;3.23;;
53203;SDS011;39086;54.424;18.456;2022-08-19T00:42:55;3.20;;;2.90;;
53203;SDS011;39086;54.424;18.456;2022-08-19T00:44:01;2.90;;;2.77;;
53203;SDS011;39086;54.424;18.456;2022-08-19T00:45:10;7.23;;;3.53;;
53203;SDS011;39086;54.424;18.456;2022-08-19T00:46:22;4.53;;;3.27;;
53203;SDS011;39086;54.424;18.456;2022-08-19T00:47:27;4.07;;;3.57;;
53203;SDS011;39086;54.424;18.456;2022-08-19T00:48:31;3.33;;;3.13;;
53203;SDS011;39086;54.424;18.456;2022-08-19T00:49:42;3.13;;;3.03;;
53203;SDS011;39086;54.424;18.456;2022-08-19T00:50:58;4.20;;;3.30;;
53203;SDS011;39086;54.424;18.456;2022-08-19T00:52:03;6.07;;;3.43;;
53203;SDS011;39086;54.424;18.456;2022-08-19T00:53:10;8.20;;;3.70;;
53203;SDS011;39086;54.424;18.456;2022-08-19T00:54:25;4.47;;;4.07;;
53203;SDS011;39086;54.424;18.456;2022-08-19T00:55:34;4.37;;;3.97;;
53203;SDS011;39086;54.424;18.456;2022-08-19T00:56:47;3.57;;;3.27;;
53203;SDS011;39086;54.424;18.456;2022-08-19T00:57:55;4.90;;;3.33;;
53203;SDS011;39086;54.424;18.456;2022-08-19T00:59:02;6.53;;;4.37;;
53203;SDS011;39086;54.424;18.456;2022-08-19T01:00:11;4.00;;;3.63;;
53203;SDS011;39086;54.424;18.456;2022-08-19T01:01:16;5.00;;;4.47;;
53203;SDS011;39086;54.424;18.456;2022-08-19T01:02:26;14.00;;;3.90;;
53203;SDS011;39086;54.424;18.456;2022-08-19T01:03:31;4.00;;;3.70;;
53203;SDS011;39086;54.424;18.456;2022-08-19T01:04:54;4.23;;;3.73;;
53203;SDS011;39086;54.424;18.456;2022-08-19T01:05:58;3.10;;;2.90;;
53203;SDS011;39086;54.424;18.456;2022-08-19T01:07:07;3.30;;;3.03;;
53203;SDS011;39086;54.424;18.456;2022-08-19T01:08:18;3.97;;;3.53;;
53203;SDS011;39086;54.424;18.456;2022-08-19T01:09:22;3.57;;;3.27;;
53203;SDS011;39086;54.424;18.456;2022-08-19T01:10:26;6.10;;;4.10;;
53203;SDS011;39086;54.424;18.456;2022-08-19T01:11:38;3.57;;;3.37;;
53203;SDS011;39086;54.424;18.456;2022-08-19T01:12:51;4.53;;;4.10;;
53203;SDS011;39086;54.424;18.456;2022-08-19T01:13:56;5.90;;;5.17;;
53203;SDS011;39086;54.424;18.456;2022-08-19T01:14:59;6.13;;;3.50;;
53203;SDS011;39086;54.424;18.456;2022-08-19T01:16:04;3.33;;;3.17;;
53203;SDS011;39086;54.424;18.456;2022-08-19T01:17:10;3.47;;;3.27;;
53203;SDS011;39086;54.424;18.456;2022-08-19T01:18:22;3.67;;;3.43;;
53203;SDS011;39086;54.424;18.456;2022-08-19T01:19:33;5.33;;;3.80;;
53203;SDS011;39086;54.424;18.456;2022-08-19T01:20:45;4.27;;;3.90;;
53203;SDS011;39086;54.424;18.456;2022-08-19T01:21:48;6.33;;;3.63;;
53203;SDS011;39086;54.424;18.456;2022-08-19T01:23:15;4.37;;;3.60;;
53203;SDS011;39086;54.424;18.456;2022-08-19T01:24:25;5.57;;;2.80;;
53203;SDS011;39086;54.424;18.456;2022-08-19T01:25:46;3.30;;;3.07;;
53203;SDS011;39086;54.424;18.456;2022-08-19T01:26:52;3.90;;;3.60;;
53203;SDS011;39086;54.424;18.456;2022-08-19T01:27:55;3.57;;;3.10;;
53203;SDS011;39086;54.424;18.456;2022-08-19T01:29:11;4.73;;;4.27;;
53203;SDS011;39086;54.424;18.456;2022-08-19T01:30:23;8.10;;;4.47;;
53203;SDS011;39086;54.424;18.456;2022-08-19T01:31:28;6.03;;;3.93;;
53203;SDS011;39086;54.424;18.456;2022-08-19T01:32:33;6.87;;;3.63;;
53203;SDS011;39086;54.424;18.456;2022-08-19T01:33:36;4.97;;;3.57;;
53203;SDS011;39086;54.424;18.456;2022-08-19T01:34:46;4.43;;;4.03;;
53203;SDS011;39086;54.424;18.456;2022-08-19T01:35:49;12.93;;;4.27;;
53203;SDS011;39086;54.424;18.456;2022-08-19T01:37:01;7.63;;;4.00;;
53203;SDS011;39086;54.424;18.456;2022-08-19T01:38:10;3.50;;;3.27;;
53203;SDS011;39086;54.424;18.456;2022-08-19T01:39:24;4.97;;;4.57;;
53203;SDS011;39086;54.424;18.456;2022-08-19T01:40:28;4.10;;;3.80;;
53203;SDS011;39086;54.424;18.456;2022-08-19T01:41:34;4.07;;;3.67;;
53203;SDS011;39086;54.424;18.456;2022-08-19T01:42:42;4.63;;;4.03;;
53203;SDS011;39086;54.424;18.456;2022-08-19T01:43:45;7.43;;;4.20;;
53203;SDS011;39086;54.424;18.456;2022-08-19T01:45:08;5.93;;;3.93;;
53203;SDS011;39086;54.424;18.456;2022-08-19T01:46:12;3.50;;;3.20;;
53203;SDS011;39086;54.424;18.456;2022-08-19T01:47:25;4.50;;;4.20;;
53203;SDS011;39086;54.424;18.456;2022-08-19T01:48:36;5.00;;;4.50;;
53203;SDS011;39086;54.424;18.456;2022-08-19T01:49:41;6.07;;;4.50;;
53203;SDS011;39086;54.424;18.456;2022-08-19T01:50:44;4.43;;;4.10;;
53203;SDS011;39086;54.424;18.456;2022-08-19T01:51:48;4.70;;;4.17;;
53203;SDS011;39086;54.424;18.456;2022-08-19T01:52:52;4.50;;;4.17;;
53203;SDS011;39086;54.424;18.456;2022-08-19T01:54:14;3.50;;;3.30;;
53203;SDS011;39086;54.424;18.456;2022-08-19T01:55:34;8.77;;;3.93;;
53203;SDS011;39086;54.424;18.456;2022-08-19T01:56:41;5.10;;;4.70;;
53203;SDS011;39086;54.424;18.456;2022-08-19T01:57:46;3.63;;;3.43;;
53203;SDS011;39086;54.424;18.456;2022-08-19T01:58:52;6.60;;;5.60;;
53203;SDS011;39086;54.424;18.456;2022-08-19T02:00:06;4.00;;;3.60;;
53203;SDS011;39086;54.424;18.456;2022-08-19T02:01:11;9.20;;;4.50;;
53203;SDS011;39086;54.424;18.456;2022-08-19T02:02:15;5.17;;;4.77;;
53203;SDS011;39086;54.424;18.456;2022-08-19T02:03:17;5.47;;;4.40;;
53203;SDS011;39086;54.424;18.456;2022-08-19T02:04:20;6.30;;;4.70;;
53203;SDS011;39086;54.424;18.456;2022-08-19T02:05:30;4.07;;;3.77;;
53203;SDS011;39086;54.424;18.456;2022-08-19T02:06:33;5.27;;;4.80;;
53203;SDS011;39086;54.424;18.456;2022-08-19T02:07:36;5.40;;;4.63;;
53203;SDS011;39086;54.424;18.456;2022-08-19T02:08:42;6.67;;;4.97;;
53203;SDS011;39086;54.424;18.456;2022-08-19T02:09:57;5.10;;;4.00;;
53203;SDS011;39086;54.424;18.456;2022-08-19T02:11:05;5.17;;;4.20;;
53203;SDS011;39086;54.424;18.456;2022-08-19T02:12:08;3.23;;;3.03;;
53203;SDS011;39086;54.424;18.456;2022-08-19T02:13:12;3.80;;;3.50;;
53203;SDS011;39086;54.424;18.456;2022-08-19T02:14:15;3.67;;;3.37;;
53203;SDS011;39086;54.424;18.456;2022-08-19T02:15:24;3.87;;;3.47;;
53203;SDS011;39086;54.424;18.456;2022-08-19T02:16:27;6.00;;;4.37;;
53203;SDS011;39086;54.424;18.456;2022-08-19T02:17:31;4.97;;;4.27;;
53203;SDS011;39086;54.424;18.456;2022-08-19T02:18:34;3.83;;;3.63;;
53203;SDS011;39086;54.424;18.456;2022-08-19T02:19:37;4.90;;;4.47;;
53203;SDS011;39086;54.424;18.456;2022-08-19T02:20:46;3.67;;;3.37;;
53203;SDS011;39086;54.424;18.456;2022-08-19T02:21:51;4.87;;;4.33;;
53203;SDS011;39086;54.424;18.456;2022-08-19T02:22:53;3.70;;;3.47;;
53203;SDS011;39086;54.424;18.456;2022-08-19T02:23:57;5.50;;;4.37;;
53203;SDS011;39086;54.424;18.456;2022-08-19T02:24:59;5.10;;;4.73;;
53203;SDS011;39086;54.424;18.456;2022-08-19T02:26:11;4.13;;;3.83;;
53203;SDS011;39086;54.424;18.456;2022-08-19T02:27:14;3.97;;;3.67;;
53203;SDS011;39086;54.424;18.456;2022-08-19T02:28:18;4.43;;;4.13;;
53203;SDS011;39086;54.424;18.456;2022-08-19T02:29:20;6.67;;;3.30;;
53203;SDS011;39086;54.424;18.456;2022-08-19T02:30:30;4.30;;;4.00;;
53203;SDS011;39086;54.424;18.456;2022-08-19T02:31:33;6.00;;;4.67;;
53203;SDS011;39086;54.424;18.456;2022-08-19T02:32:37;6.20;;;5.10;;
53203;SDS011;39086;54.424;18.456;2022-08-19T02:33:45;4.37;;;4.00;;
53203;SDS011;39086;54.424;18.456;2022-08-19T02:34:57;4.30;;;4.00;;
53203;SDS011;39086;54.424;18.456;2022-08-19T02:35:59;5.50;;;5.00;;
53203;SDS011;39086;54.424;18.456;2022-08-19T02:37:06;5.20;;;4.80;;
53203;SDS011;39086;54.424;18.456;2022-08-19T02:38:35;4.33;;;4.03;;
53203;SDS011;39086;54.424;18.456;2022-08-19T02:39:38;8.83;;;4.67;;
53203;SDS011;39086;54.424;18.456;2022-08-19T02:40:46;4.20;;;3.43;;
53203;SDS011;39086;54.424;18.456;2022-08-19T02:41:52;4.00;;;3.67;;
53203;SDS011;39086;54.424;18.456;2022-08-19T02:42:55;5.00;;;3.80;;
53203;SDS011;39086;54.424;18.456;2022-08-19T02:44:04;3.80;;;3.50;;
53203;SDS011;39086;54.424;18.456;2022-08-19T02:45:31;6.53;;;4.27;;
53203;SDS011;39086;54.424;18.456;2022-08-19T02:46:34;4.93;;;4.53;;
53203;SDS011;39086;54.424;18.456;2022-08-19T02:47:37;4.37;;;3.97;;
53203;SDS011;39086;54.424;18.456;2022-08-19T02:48:40;4.20;;;3.90;;
53203;SDS011;39086;54.424;18.456;2022-08-19T02:49:49;3.43;;;3.23;;
53203;SDS011;39086;54.424;18.456;2022-08-19T02:50:52;2.97;;;2.77;;
53203;SDS011;39086;54.424;18.456;2022-08-19T02:51:57;5.63;;;5.13;;
53203;SDS011;39086;54.424;18.456;2022-08-19T02:52:59;4.33;;;3.93;;
53203;SDS011;39086;54.424;18.456;2022-08-19T02:54:02;3.23;;;3.03;;
53203;SDS011;39086;54.424;18.456;2022-08-19T02:55:21;17.33;;;4.83;;
53203;SDS011;39086;54.424;18.456;2022-08-19T02:56:29;3.70;;;3.50;;
53203;SDS011;39086;54.424;18.456;2022-08-19T02:57:34;6.03;;;4.53;;
53203;SDS011;39086;54.424;18.456;2022-08-19T02:58:37;3.90;;;3.63;;
53203;SDS011;39086;54.424;18.456;2022-08-19T02:59:40;4.37;;;4.07;;
53203;SDS011;39086;54.424;18.456;2022-08-19T03:00:50;5.13;;;4.40;;
53203;SDS011;39086;54.424;18.456;2022-08-19T03:01:55;4.80;;;4.33;;
53203;SDS011;39086;54.424;18.456;2022-08-19T03:02:57;4.07;;;3.73;;
53203;SDS011;39086;54.424;18.456;2022-08-19T03:04:03;5.00;;;3.53;;
53203;SDS011;39086;54.424;18.456;2022-08-19T03:05:07;7.57;;;4.47;;
53203;SDS011;39086;54.424;18.456;2022-08-19T03:06:28;4.27;;;2.97;;
53203;SDS011;39086;54.424;18.456;2022-08-19T03:07:32;4.70;;;3.57;;
53203;SDS011;39086;54.424;18.456;2022-08-19T03:08:34;5.23;;;4.30;;
53203;SDS011;39086;54.424;18.456;2022-08-19T03:09:38;5.60;;;3.70;;
53203;SDS011;39086;54.424;18.456;2022-08-19T03:10:46;4.30;;;3.90;;
53203;SDS011;39086;54.424;18.456;2022-08-19T03:11:50;6.90;;;4.27;;
53203;SDS011;39086;54.424;18.456;2022-08-19T03:12:54;5.03;;;4.67;;
53203;SDS011;39086;54.424;18.456;2022-08-19T03:13:58;4.67;;;4.10;;
53203;SDS011;39086;54.424;18.456;2022-08-19T03:15:01;6.00;;;4.93;;
53203;SDS011;39086;54.424;18.456;2022-08-19T03:16:11;5.43;;;4.93;;
53203;SDS011;39086;54.424;18.456;2022-08-19T03:17:14;3.93;;;3.40;;
53203;SDS011;39086;54.424;18.456;2022-08-19T03:18:17;5.63;;;4.17;;
53203;SDS011;39086;54.424;18.456;2022-08-19T03:19:20;3.70;;;3.40;;
53203;SDS011;39086;54.424;18.456;2022-08-19T03:20:23;3.73;;;3.50;;
53203;SDS011;39086;54.424;18.456;2022-08-19T03:21:33;5.47;;;4.03;;
53203;SDS011;39086;54.424;18.456;2022-08-19T03:22:37;8.00;;;4.30;;
53203;SDS011;39086;54.424;18.456;2022-08-19T03:23:39;3.57;;;3.37;;
53203;SDS011;39086;54.424;18.456;2022-08-19T03:24:43;3.63;;;3.33;;
53203;SDS011;39086;54.424;18.456;2022-08-19T03:25:47;5.73;;;3.17;;
53203;SDS011;39086;54.424;18.456;2022-08-19T03:27:16;6.67;;;3.87;;
53203;SDS011;39086;54.424;18.456;2022-08-19T03:28:34;2.67;;;2.47;;
53203;SDS011;39086;54.424;18.456;2022-08-19T03:29:38;3.40;;;3.03;;
53203;SDS011;39086;54.424;18.456;2022-08-19T03:30:54;4.57;;;3.70;;
53203;SDS011;39086;54.424;18.456;2022-08-19T03:32:03;5.63;;;3.10;;
53203;SDS011;39086;54.424;18.456;2022-08-19T03:33:32;3.90;;;3.63;;
53203;SDS011;39086;54.424;18.456;2022-08-19T03:34:37;3.63;;;3.40;;
53203;SDS011;39086;54.424;18.456;2022-08-19T03:35:39;3.13;;;2.93;;
53203;SDS011;39086;54.424;18.456;2022-08-19T03:36:43;3.33;;;2.83;;
53203;SDS011;39086;54.424;18.456;2022-08-19T03:37:47;5.53;;;5.13;;
53203;SDS011;39086;54.424;18.456;2022-08-19T03:38:56;5.37;;;4.50;;
53203;SDS011;39086;54.424;18.456;2022-08-19T03:40:00;5.80;;;3.63;;
53203;SDS011;39086;54.424;18.456;2022-08-19T03:41:05;7.53;;;5.17;;
53203;SDS011;39086;54.424;18.456;2022-08-19T03:42:09;4.43;;;4.10;;
53203;SDS011;39086;54.424;18.456;2022-08-19T03:43:40;5.30;;;3.87;;
53203;SDS011;39086;54.424;18.456;2022-08-19T03:44:44;5.90;;;4.90;;
53203;SDS011;39086;54.424;18.456;2022-08-19T03:45:47;4.60;;;4.17;;
53203;SDS011;39086;54.424;18.456;2022-08-19T03:46:52;4.00;;;3.70;;
53203;SDS011;39086;54.424;18.456;2022-08-19T03:47:56;3.50;;;3.30;;
53203;SDS011;39086;54.424;18.456;2022-08-19T03:49:05;6.13;;;3.73;;
53203;SDS011;39086;54.424;18.456;2022-08-19T03:50:09;11.40;;;3.90;;
53203;SDS011;39086;54.424;18.456;2022-08-19T03:51:17;3.87;;;3.67;;
53203;SDS011;39086;54.424;18.456;2022-08-19T03:52:31;3.00;;;2.80;;
53203;SDS011;39086;54.424;18.456;2022-08-19T03:53:35;3.57;;;2.93;;
53203;SDS011;39086;54.424;18.456;2022-08-19T03:54:50;4.43;;;4.03;;
53203;SDS011;39086;54.424;18.456;2022-08-19T03:56:07;4.60;;;4.20;;
53203;SDS011;39086;54.424;18.456;2022-08-19T03:57:10;4.53;;;4.03;;
53203;SDS011;39086;54.424;18.456;2022-08-19T03:58:14;4.93;;;4.43;;
53203;SDS011;39086;54.424;18.456;2022-08-19T03:59:18;8.37;;;5.17;;
53203;SDS011;39086;54.424;18.456;2022-08-19T04:00:28;3.30;;;3.00;;
53203;SDS011;39086;54.424;18.456;2022-08-19T04:01:37;4.00;;;3.70;;
53203;SDS011;39086;54.424;18.456;2022-08-19T04:02:41;15.73;;;3.67;;
53203;SDS011;39086;54.424;18.456;2022-08-19T04:04:01;4.10;;;3.73;;
53203;SDS011;39086;54.424;18.456;2022-08-19T04:05:05;3.60;;;3.27;;
53203;SDS011;39086;54.424;18.456;2022-08-19T04:06:18;3.93;;;3.63;;
53203;SDS011;39086;54.424;18.456;2022-08-19T04:07:22;5.53;;;3.33;;
53203;SDS011;39086;54.424;18.456;2022-08-19T04:08:26;4.40;;;3.47;;
53203;SDS011;39086;54.424;18.456;2022-08-19T04:09:28;4.03;;;3.60;;
53203;SDS011;39086;54.424;18.456;2022-08-19T04:10:34;3.10;;;2.80;;
53203;SDS011;39086;54.424;18.456;2022-08-19T04:11:44;5.93;;;4.47;;
53203;SDS011;39086;54.424;18.456;2022-08-19T04:12:48;4.57;;;4.17;;
53203;SDS011;39086;54.424;18.456;2022-08-19T04:13:51;3.87;;;3.50;;
53203;SDS011;39086;54.424;18.456;2022-08-19T04:14:56;4.87;;;4.37;;
53203;SDS011;39086;54.424;18.456;2022-08-19T04:15:59;3.77;;;3.57;;
53203;SDS011;39086;54.424;18.456;2022-08-19T04:17:09;4.47;;;4.07;;
53203;SDS011;39086;54.424;18.456;2022-08-19T04:18:22;4.07;;;3.57;;
53203;SDS011;39086;54.424;18.456;2022-08-19T04:19:25;7.37;;;4.23;;
53203;SDS011;39086;54.424;18.456;2022-08-19T04:20:29;7.63;;;3.90;;
53203;SDS011;39086;54.424;18.456;2022-08-19T04:21:33;6.97;;;3.87;;
53203;SDS011;39086;54.424;18.456;2022-08-19T04:22:36;9.50;;;4.20;;
53203;SDS011;39086;54.424;18.456;2022-08-19T04:23:46;8.90;;;4.13;;
53203;SDS011;39086;54.424;18.456;2022-08-19T04:24:52;4.07;;;3.67;;
53203;SDS011;39086;54.424;18.456;2022-08-19T04:25:54;4.33;;;3.93;;
53203;SDS011;39086;54.424;18.456;2022-08-19T04:27:05;5.07;;;4.27;;
53203;SDS011;39086;54.424;18.456;2022-08-19T04:28:08;9.17;;;5.00;;
53203;SDS011;39086;54.424;18.456;2022-08-19T04:29:13;3.80;;;3.43;;
53203;SDS011;39086;54.424;18.456;2022-08-19T04:30:17;4.53;;;4.07;;
53203;SDS011;39086;54.424;18.456;2022-08-19T04:31:31;6.83;;;5.20;;
53203;SDS011;39086;54.424;18.456;2022-08-19T04:32:36;4.90;;;4.40;;
53203;SDS011;39086;54.424;18.456;2022-08-19T04:33:46;6.30;;;3.87;;
53203;SDS011;39086;54.424;18.456;2022-08-19T04:34:49;6.70;;;4.40;;
53203;SDS011;39086;54.424;18.456;2022-08-19T04:36:16;17.03;;;5.90;;
53203;SDS011;39086;54.424;18.456;2022-08-19T04:37:21;5.10;;;4.70;;
53203;SDS011;39086;54.424;18.456;2022-08-19T04:38:26;13.93;;;4.30;;
53203;SDS011;39086;54.424;18.456;2022-08-19T04:39:35;4.43;;;4.00;;
53203;SDS011;39086;54.424;18.456;2022-08-19T04:41:03;9.33;;;4.53;;
53203;SDS011;39086;54.424;18.456;2022-08-19T04:42:23;3.17;;;2.80;;
53203;SDS011;39086;54.424;18.456;2022-08-19T04:43:51;4.80;;;4.03;;
53203;SDS011;39086;54.424;18.456;2022-08-19T04:44:55;4.73;;;4.33;;
53203;SDS011;39086;54.424;18.456;2022-08-19T04:46:05;5.70;;;3.20;;
53203;SDS011;39086;54.424;18.456;2022-08-19T04:47:10;7.37;;;4.30;;
53203;SDS011;39086;54.424;18.456;2022-08-19T04:48:38;4.57;;;4.13;;
53203;SDS011;39086;54.424;18.456;2022-08-19T04:49:49;7.00;;;4.63;;
53203;SDS011;39086;54.424;18.456;2022-08-19T04:50:52;10.30;;;5.03;;
53203;SDS011;39086;54.424;18.456;2022-08-19T04:51:58;6.37;;;5.07;;
53203;SDS011;39086;54.424;18.456;2022-08-19T04:53:02;7.93;;;5.90;;
53203;SDS011;39086;54.424;18.456;2022-08-19T04:54:11;10.87;;;6.47;;
53203;SDS011;39086;54.424;18.456;2022-08-19T04:55:30;7.17;;;6.20;;
53203;SDS011;39086;54.424;18.456;2022-08-19T04:56:39;6.97;;;5.47;;
53203;SDS011;39086;54.424;18.456;2022-08-19T04:57:51;13.33;;;5.20;;
53203;SDS011;39086;54.424;18.456;2022-08-19T04:58:54;19.70;;;6.40;;
53203;SDS011;39086;54.424;18.456;2022-08-19T04:59:57;18.37;;;7.03;;
53203;SDS011;39086;54.424;18.456;2022-08-19T05:01:08;13.90;;;5.07;;
53203;SDS011;39086;54.424;18.456;2022-08-19T05:02:11;33.10;;;5.77;;
53203;SDS011;39086;54.424;18.456;2022-08-19T05:03:14;7.27;;;4.10;;
53203;SDS011;39086;54.424;18.456;2022-08-19T05:04:30;5.40;;;4.20;;
53203;SDS011;39086;54.424;18.456;2022-08-19T05:05:37;8.93;;;5.13;;
53203;SDS011;39086;54.424;18.456;2022-08-19T05:06:46;4.97;;;3.37;;
53203;SDS011;39086;54.424;18.456;2022-08-19T05:07:49;8.37;;;3.93;;
53203;SDS011;39086;54.424;18.456;2022-08-19T05:08:52;4.87;;;4.30;;
53203;SDS011;39086;54.424;18.456;2022-08-19T05:10:02;7.03;;;4.13;;
53203;SDS011;39086;54.424;18.456;2022-08-19T05:11:07;3.23;;;2.83;;
53203;SDS011;39086;54.424;18.456;2022-08-19T05:12:16;4.23;;;3.93;;
53203;SDS011;39086;54.424;18.456;2022-08-19T05:13:20;6.77;;;3.67;;
53203;SDS011;39086;54.424;18.456;2022-08-19T05:14:23;5.03;;;3.63;;
53203;SDS011;39086;54.424;18.456;2022-08-19T05:15:26;6.50;;;4.07;;
53203;SDS011;39086;54.424;18.456;2022-08-19T05:16:37;5.13;;;4.53;;
53203;SDS011;39086;54.424;18.456;2022-08-19T05:17:40;8.83;;;4.03;;
53203;SDS011;39086;54.424;18.456;2022-08-19T05:19:09;8.83;;;4.67;;
53203;SDS011;39086;54.424;18.456;2022-08-19T05:20:33;3.20;;;2.97;;
53203;SDS011;39086;54.424;18.456;2022-08-19T05:21:54;3.80;;;3.60;;
53203;SDS011;39086;54.424;18.456;2022-08-19T05:23:22;5.20;;;4.70;;
53203;SDS011;39086;54.424;18.456;2022-08-19T05:24:26;5.73;;;5.00;;
53203;SDS011;39086;54.424;18.456;2022-08-19T05:25:31;6.23;;;5.83;;
53203;SDS011;39086;54.424;18.456;2022-08-19T05:26:43;7.20;;;6.40;;
53203;SDS011;39086;54.424;18.456;2022-08-19T05:27:47;7.47;;;7.03;;
53203;SDS011;39086;54.424;18.456;2022-08-19T05:28:57;8.00;;;7.47;;
53203;SDS011;39086;54.424;18.456;2022-08-19T05:30:00;8.00;;;7.40;;
53203;SDS011;39086;54.424;18.456;2022-08-19T05:31:04;7.33;;;6.70;;
53203;SDS011;39086;54.424;18.456;2022-08-19T05:32:08;12.20;;;8.60;;
53203;SDS011;39086;54.424;18.456;2022-08-19T05:33:12;7.93;;;7.23;;
53203;SDS011;39086;54.424;18.456;2022-08-19T05:34:22;9.57;;;8.77;;
53203;SDS011;39086;54.424;18.456;2022-08-19T05:35:27;10.50;;;9.67;;
53203;SDS011;39086;54.424;18.456;2022-08-19T05:36:35;9.20;;;8.60;;
53203;SDS011;39086;54.424;18.456;2022-08-19T05:37:47;10.10;;;9.53;;
53203;SDS011;39086;54.424;18.456;2022-08-19T05:38:57;10.33;;;9.37;;
53203;SDS011;39086;54.424;18.456;2022-08-19T05:40:07;8.70;;;8.20;;
53203;SDS011;39086;54.424;18.456;2022-08-19T05:41:11;8.30;;;7.90;;
53203;SDS011;39086;54.424;18.456;2022-08-19T05:42:15;8.97;;;8.47;;
53203;SDS011;39086;54.424;18.456;2022-08-19T05:43:27;18.57;;;8.20;;
53203;SDS011;39086;54.424;18.456;2022-08-19T05:44:38;8.27;;;7.73;;
53203;SDS011;39086;54.424;18.456;2022-08-19T05:45:50;7.73;;;7.30;;
53203;SDS011;39086;54.424;18.456;2022-08-19T05:46:53;7.40;;;6.90;;
53203;SDS011;39086;54.424;18.456;2022-08-19T05:48:00;6.07;;;5.57;;
53203;SDS011;39086;54.424;18.456;2022-08-19T05:49:09;5.43;;;5.13;;
53203;SDS011;39086;54.424;18.456;2022-08-19T05:50:12;4.07;;;3.77;;
53203;SDS011;39086;54.424;18.456;2022-08-19T05:51:15;4.03;;;3.73;;
53203;SDS011;39086;54.424;18.456;2022-08-19T05:52:19;6.20;;;3.37;;
53203;SDS011;39086;54.424;18.456;2022-08-19T05:53:29;4.57;;;3.83;;
53203;SDS011;39086;54.424;18.456;2022-08-19T05:54:46;4.70;;;3.70;;
53203;SDS011;39086;54.424;18.456;2022-08-19T05:56:04;4.00;;;3.60;;
53203;SDS011;39086;54.424;18.456;2022-08-19T05:57:08;3.80;;;3.50;;
53203;SDS011;39086;54.424;18.456;2022-08-19T05:58:13;7.90;;;3.33;;
53203;SDS011;39086;54.424;18.456;2022-08-19T05:59:18;4.17;;;3.77;;
53203;SDS011;39086;54.424;18.456;2022-08-19T06:00:32;4.00;;;2.73;;
53203;SDS011;39086;54.424;18.456;2022-08-19T06:01:43;7.23;;;3.30;;
53203;SDS011;39086;54.424;18.456;2022-08-19T06:02:46;3.60;;;3.30;;
53203;SDS011;39086;54.424;18.456;2022-08-19T06:03:53;5.43;;;3.90;;
53203;SDS011;39086;54.424;18.456;2022-08-19T06:04:56;3.10;;;2.83;;
53203;SDS011;39086;54.424;18.456;2022-08-19T06:06:07;3.97;;;3.40;;
53203;SDS011;39086;54.424;18.456;2022-08-19T06:07:10;4.10;;;3.20;;
53203;SDS011;39086;54.424;18.456;2022-08-19T06:08:14;8.87;;;2.67;;
53203;SDS011;39086;54.424;18.456;2022-08-19T06:09:19;3.80;;;2.80;;
53203;SDS011;39086;54.424;18.456;2022-08-19T06:10:22;3.83;;;2.83;;
53203;SDS011;39086;54.424;18.456;2022-08-19T06:11:32;3.50;;;2.80;;
53203;SDS011;39086;54.424;18.456;2022-08-19T06:12:36;5.47;;;3.20;;
53203;SDS011;39086;54.424;18.456;2022-08-19T06:13:40;3.13;;;2.83;;
53203;SDS011;39086;54.424;18.456;2022-08-19T06:14:42;2.73;;;2.50;;
53203;SDS011;39086;54.424;18.456;2022-08-19T06:15:49;3.43;;;3.13;;
53203;SDS011;39086;54.424;18.456;2022-08-19T06:16:58;7.93;;;3.30;;
53203;SDS011;39086;54.424;18.456;2022-08-19T06:18:07;5.50;;;3.67;;
53203;SDS011;39086;54.424;18.456;2022-08-19T06:19:12;5.50;;;2.20;;
53203;SDS011;39086;54.424;18.456;2022-08-19T06:20:17;3.33;;;2.90;;
53203;SDS011;39086;54.424;18.456;2022-08-19T06:21:42;4.00;;;2.53;;
53203;SDS011;39086;54.424;18.456;2022-08-19T06:22:53;5.73;;;4.67;;
53203;SDS011;39086;54.424;18.456;2022-08-19T06:24:03;3.65;;;3.35;;
53203;SDS011;39086;54.424;18.456;2022-08-19T06:25:07;6.27;;;4.20;;
53203;SDS011;39086;54.424;18.456;2022-08-19T06:26:11;8.10;;;5.47;;
53203;SDS011;39086;54.424;18.456;2022-08-19T06:27:22;11.80;;;5.00;;
53203;SDS011;39086;54.424;18.456;2022-08-19T06:28:35;6.10;;;5.57;;
53203;SDS011;39086;54.424;18.456;2022-08-19T06:29:37;13.02;;;5.03;;
53203;SDS011;39086;54.424;18.456;2022-08-19T06:30:41;4.45;;;4.25;;
53203;SDS011;39086;54.424;18.456;2022-08-19T06:31:51;8.50;;;4.43;;
53203;SDS011;39086;54.424;18.456;2022-08-19T06:32:55;5.13;;;4.78;;
53203;SDS011;39086;54.424;18.456;2022-08-19T06:33:58;5.10;;;4.80;;
53203;SDS011;39086;54.424;18.456;2022-08-19T06:35:11;6.25;;;4.13;;
53203;SDS011;39086;54.424;18.456;2022-08-19T06:36:24;9.27;;;4.18;;
53203;SDS011;39086;54.424;18.456;2022-08-19T06:37:32;4.47;;;4.07;;
53203;SDS011;39086;54.424;18.456;2022-08-19T06:38:38;4.45;;;4.25;;
53203;SDS011;39086;54.424;18.456;2022-08-19T06:39:42;5.20;;;4.45;;
53203;SDS011;39086;54.424;18.456;2022-08-19T06:40:47;4.55;;;4.25;;
53203;SDS011;39086;54.424;18.456;2022-08-19T06:41:57;3.40;;;3.22;;